• Join FlightAware (Why Join?)
  • Login
  • US Flag 
01:37PM EDT


 

Airport Tracker/Info


-or-


 

Live Flight TrackerFlight Track Log ✈ N367ER ✈ 13-Mar-2012 ✈ KSUS - KMSL

Flight Track Log - Related Links

Times and Time Zones

All times are in EDT time to prevent confusion due to time zone crossing. See the N367ER flight status page for this flight to view local times or setup timezone preferences in your user account.

Time Position Orientation Groundspeed Altitude Reporting Facility
EDT Latitude Longitude Course Direction KTS MPH feet Rate Location/Type
03:27PM 38.6511 -90.6158 256° West 159 183 1,200  Level FAA TRACON SMA TRACON (SMA)
03:27PM 38.6425 -90.6611 232° Southwest 192 221 2,400 1,080 Climbing FAA TRACON SMA TRACON (SMA)
03:28PM 38.6225 -90.6939 160° South 218 251 2,700 900 Climbing FAA TRACON SMA TRACON (SMA)
03:29PM 38.5819 -90.6747 156° South 224 258 3,600 2,040 Climbing FAA TRACON SMA TRACON (SMA)
03:29PM 38.5428 -90.6522 155° Southeast 223 257 5,400 2,700 Climbing FAA TRACON SMA TRACON (SMA)
03:30PM 38.5086 -90.6322 155° Southeast 224 258 7,200 2,760 Climbing FAA TRACON SMA TRACON (SMA)
03:31PM 38.4661 -90.6064 154° Southeast 218 251 9,300 2,460 Climbing FAA TRACON SMA TRACON (SMA)
03:31PM 38.4303 -90.5836 153° Southeast 231 266 10,500 2,040 Climbing FAA TRACON SMA TRACON (SMA)
03:32PM 38.3889 -90.5569 152° Southeast 243 280 11,900 1,920 Climbing FAA TRACON SMA TRACON (SMA)
03:33PM 38.3497 -90.5306 153° Southeast 257 296 13,100 1,920 Climbing FAA TRACON SMA TRACON (SMA)
03:33PM 38.3044 -90.5017 164° South 268 308 14,500 1,980 Climbing FAA TRACON SMA TRACON (SMA)
03:34PM 38.2561 -90.4839 192° South 273 314 15,800 1,680 Climbing FAA TRACON SMA TRACON (SMA)
03:35PM 38.2100 -90.4964 188° South 278 320 16,800 1,440 Climbing FAA TRACON SMA TRACON (SMA)
03:35PM 38.1539 -90.5064 184° South 299 344 17,700 1,500 Climbing FAA TRACON SMA TRACON (SMA)
03:36PM 38.0939 -90.5114 187° South 312 359 18,800 1,500 Climbing FAA TRACON SMA TRACON (SMA)
03:37PM 38.0400 -90.5194 173° South 317 365 19,700 1,380 Climbing FAA TRACON SMA TRACON (SMA)
03:37PM 37.9786 -90.5103 141° Southeast 325 374 20,700 960 Climbing FAA TRACON SMA TRACON (SMA)
03:38PM 37.9253 -90.4553 148° Southeast 351 404 21,000 180 Climbing FAA TRACON SMA TRACON (SMA)
03:39PM 37.8708 -90.4114 143° Southeast 374 430 21,000  Level FAA TRACON SMA TRACON (SMA)
03:39PM 37.8125 -90.3561 142° Southeast 386 444 21,000  Level FAA TRACON SMA TRACON (SMA)
03:40PM 37.7531 -90.2975 204° Southwest 386 444 21,000  Level FAA TRACON SMA TRACON (SMA)
03:41PM 37.7206 -90.3158 143° Southeast 377 434 21,000  Level Kansas City Center
03:42PM 37.6364 -90.2364 143° Southeast 389 448 21,000  Level Kansas City Center
03:43PM 37.4775 -90.0850 144° Southeast 372 428 21,000  Level Memphis Center
03:44PM 37.3878 -90.0019 143° Southeast 384 442 21,000  Level Memphis Center
03:45PM 37.3000 -89.9189 143° Southeast 391 450 21,000  Level Memphis Center
03:46PM 37.2142 -89.8386 143° Southeast 391 450 21,000  Level Memphis Center
03:47PM 37.1264 -89.7558 144° Southeast 391 450 21,000  Level Memphis Center
03:48PM 37.0425 -89.6786 142° Southeast 386 444 21,000  Level Memphis Center
03:49PM 36.9567 -89.5961 144° Southeast 386 444 21,000  Level Memphis Center
03:50PM 36.8706 -89.5167 143° Southeast 386 444 21,000  Level Memphis Center
03:51PM 36.7847 -89.4372 143° Southeast 386 444 21,000  Level Memphis Center
03:52PM 36.6986 -89.3556 143° Southeast 386 444 21,000  Level Memphis Center
03:53PM 36.6103 -89.2739 144° Southeast 391 450 21,000  Level Memphis Center
03:54PM 36.5283 -89.2000 142° Southeast 391 450 21,000  Level Memphis Center
03:55PM 36.4422 -89.1161 145° Southeast 391 450 21,000  Level Memphis Center
03:56PM 36.3517 -89.0375 144° Southeast 391 450 21,000  Level Memphis Center
03:57PM 36.2633 -88.9567 145° Southeast 391 450 21,000  Level Memphis Center
03:58PM 36.1769 -88.8811 143° Southeast 391 450 21,000 -600 Level Memphis Center
03:59PM 36.0903 -88.8006 144° Southeast 391 450 19,800 -1,380 Descending Memphis Center
04:00PM 36.0061 -88.7250 143° Southeast 391 450 18,300 -1,440 Descending Memphis Center
04:01PM 35.9258 -88.6497 145° Southeast 384 442 17,000 -1,440 Descending Memphis Center
04:02PM 35.8433 -88.5772 143° Southeast 374 430 15,500 -1,500 Descending Memphis Center
04:03PM 35.7653 -88.5047 145° Southeast 362 417 14,000 -1,500 Descending Memphis Center
04:04PM 35.6892 -88.4400 144° Southeast 357 411 12,500 -1,560 Descending Memphis Center
04:05PM 35.6108 -88.3703 144° Southeast 345 397 10,900 -1,560 Descending Memphis Center
04:06PM 35.5389 -88.3058 143° Southeast 334 384 9,400 -1,500 Descending Memphis Center
04:07PM 35.4669 -88.2386 146° Southeast 334 384 7,900 -1,200 Descending Memphis Center
04:08PM 35.3950 -88.1794 144° Southeast 328 377 7,000 -480 Descending Memphis Center
04:09PM 35.3250 -88.1175 148° Southeast 322 371 7,000 -720 Level Memphis Center
04:10PM 35.2489 -88.0586 156° South 309 356 5,600 -1,500 Descending Memphis Center
04:11PM 35.1750 -88.0175 155° Southeast 298 343 4,000 -1,200 Descending Memphis Center
04:12PM 35.1097 -87.9811 155° Southeast 280 322 3,300 -720 Descending Memphis Center